sensor_id;sensor_type;location;lat;lon;timestamp;P1;durP1;ratioP1;P2;durP2;ratioP2
18526;SDS011;9393;42.158;24.748;2022-09-23T00:01:33;3.20;;;2.90;;
18526;SDS011;9393;42.158;24.748;2022-09-23T00:04:36;3.80;;;3.10;;
18526;SDS011;9393;42.158;24.748;2022-09-23T00:07:40;4.27;;;3.57;;
18526;SDS011;9393;42.158;24.748;2022-09-23T00:10:44;4.00;;;3.40;;
18526;SDS011;9393;42.158;24.748;2022-09-23T00:13:48;4.27;;;3.60;;
18526;SDS011;9393;42.158;24.748;2022-09-23T00:16:53;3.30;;;3.00;;
18526;SDS011;9393;42.158;24.748;2022-09-23T00:19:56;5.47;;;3.67;;
18526;SDS011;9393;42.158;24.748;2022-09-23T00:22:59;4.80;;;3.67;;
18526;SDS011;9393;42.158;24.748;2022-09-23T00:26:04;4.10;;;3.30;;
18526;SDS011;9393;42.158;24.748;2022-09-23T00:29:09;4.40;;;4.00;;
18526;SDS011;9393;42.158;24.748;2022-09-23T00:32:12;4.33;;;3.50;;
18526;SDS011;9393;42.158;24.748;2022-09-23T00:35:16;4.33;;;3.60;;
18526;SDS011;9393;42.158;24.748;2022-09-23T00:38:19;4.57;;;3.83;;
18526;SDS011;9393;42.158;24.748;2022-09-23T00:41:24;3.87;;;3.40;;
18526;SDS011;9393;42.158;24.748;2022-09-23T00:44:44;4.37;;;3.30;;
18526;SDS011;9393;42.158;24.748;2022-09-23T00:47:50;4.53;;;3.90;;
18526;SDS011;9393;42.158;24.748;2022-09-23T00:50:55;4.60;;;3.77;;
18526;SDS011;9393;42.158;24.748;2022-09-23T00:53:58;12.70;;;4.07;;
18526;SDS011;9393;42.158;24.748;2022-09-23T00:57:04;6.27;;;3.90;;
18526;SDS011;9393;42.158;24.748;2022-09-23T01:00:08;4.57;;;3.53;;
18526;SDS011;9393;42.158;24.748;2022-09-23T01:03:12;4.27;;;3.50;;
18526;SDS011;9393;42.158;24.748;2022-09-23T01:06:16;4.67;;;3.63;;
18526;SDS011;9393;42.158;24.748;2022-09-23T01:09:19;4.27;;;3.57;;
18526;SDS011;9393;42.158;24.748;2022-09-23T01:12:29;3.57;;;3.27;;
18526;SDS011;9393;42.158;24.748;2022-09-23T01:15:46;8.70;;;3.47;;
18526;SDS011;9393;42.158;24.748;2022-09-23T01:18:56;4.03;;;3.60;;
18526;SDS011;9393;42.158;24.748;2022-09-23T01:22:07;4.23;;;3.83;;
18526;SDS011;9393;42.158;24.748;2022-09-23T01:25:22;4.53;;;3.93;;
18526;SDS011;9393;42.158;24.748;2022-09-23T01:28:48;5.03;;;3.47;;
18526;SDS011;9393;42.158;24.748;2022-09-23T01:32:07;4.73;;;3.90;;
18526;SDS011;9393;42.158;24.748;2022-09-23T01:35:19;5.53;;;3.50;;
18526;SDS011;9393;42.158;24.748;2022-09-23T01:38:33;5.77;;;3.97;;
18526;SDS011;9393;42.158;24.748;2022-09-23T01:41:45;4.30;;;3.90;;
18526;SDS011;9393;42.158;24.748;2022-09-23T01:44:54;7.67;;;3.60;;
18526;SDS011;9393;42.158;24.748;2022-09-23T01:48:04;4.23;;;3.70;;
18526;SDS011;9393;42.158;24.748;2022-09-23T01:51:15;4.20;;;3.80;;
18526;SDS011;9393;42.158;24.748;2022-09-23T01:54:23;8.73;;;4.13;;
18526;SDS011;9393;42.158;24.748;2022-09-23T01:57:32;4.03;;;3.40;;
18526;SDS011;9393;42.158;24.748;2022-09-23T02:00:41;4.47;;;3.87;;
18526;SDS011;9393;42.158;24.748;2022-09-23T02:03:53;4.00;;;3.47;;
18526;SDS011;9393;42.158;24.748;2022-09-23T02:07:02;4.63;;;3.87;;
18526;SDS011;9393;42.158;24.748;2022-09-23T02:10:12;4.10;;;3.53;;
18526;SDS011;9393;42.158;24.748;2022-09-23T02:13:20;6.77;;;3.93;;
18526;SDS011;9393;42.158;24.748;2022-09-23T02:16:31;5.60;;;4.17;;
18526;SDS011;9393;42.158;24.748;2022-09-23T02:19:43;4.90;;;3.90;;
18526;SDS011;9393;42.158;24.748;2022-09-23T02:22:50;4.77;;;4.00;;
18526;SDS011;9393;42.158;24.748;2022-09-23T02:26:02;4.57;;;4.00;;
18526;SDS011;9393;42.158;24.748;2022-09-23T02:29:13;7.40;;;4.27;;
18526;SDS011;9393;42.158;24.748;2022-09-23T02:32:22;5.10;;;4.20;;
18526;SDS011;9393;42.158;24.748;2022-09-23T02:35:34;5.67;;;4.13;;
18526;SDS011;9393;42.158;24.748;2022-09-23T02:38:43;4.77;;;4.10;;
18526;SDS011;9393;42.158;24.748;2022-09-23T02:41:54;5.33;;;4.10;;
18526;SDS011;9393;42.158;24.748;2022-09-23T02:45:01;5.73;;;4.07;;
18526;SDS011;9393;42.158;24.748;2022-09-23T02:48:06;6.50;;;4.20;;
18526;SDS011;9393;42.158;24.748;2022-09-23T02:51:13;4.80;;;4.33;;
18526;SDS011;9393;42.158;24.748;2022-09-23T02:54:18;4.47;;;4.00;;
18526;SDS011;9393;42.158;24.748;2022-09-23T02:57:23;6.70;;;4.57;;
18526;SDS011;9393;42.158;24.748;2022-09-23T03:00:28;5.00;;;4.50;;
18526;SDS011;9393;42.158;24.748;2022-09-23T03:03:43;5.10;;;4.60;;
18526;SDS011;9393;42.158;24.748;2022-09-23T03:06:57;5.10;;;4.60;;
18526;SDS011;9393;42.158;24.748;2022-09-23T03:10:07;8.13;;;4.67;;
18526;SDS011;9393;42.158;24.748;2022-09-23T03:13:20;6.10;;;4.77;;
18526;SDS011;9393;42.158;24.748;2022-09-23T03:16:33;6.97;;;4.73;;
18526;SDS011;9393;42.158;24.748;2022-09-23T03:19:45;6.03;;;4.60;;
18526;SDS011;9393;42.158;24.748;2022-09-23T03:22:55;6.03;;;4.27;;
18526;SDS011;9393;42.158;24.748;2022-09-23T03:26:04;6.13;;;4.50;;
18526;SDS011;9393;42.158;24.748;2022-09-23T03:29:11;7.23;;;4.67;;
18526;SDS011;9393;42.158;24.748;2022-09-23T03:32:17;6.17;;;4.60;;
18526;SDS011;9393;42.158;24.748;2022-09-23T03:35:22;7.10;;;4.60;;
18526;SDS011;9393;42.158;24.748;2022-09-23T03:38:32;9.63;;;4.80;;
18526;SDS011;9393;42.158;24.748;2022-09-23T03:41:40;11.27;;;4.97;;
18526;SDS011;9393;42.158;24.748;2022-09-23T03:44:48;5.47;;;4.63;;
18526;SDS011;9393;42.158;24.748;2022-09-23T03:47:54;7.43;;;5.17;;
18526;SDS011;9393;42.158;24.748;2022-09-23T03:50:58;9.13;;;5.43;;
18526;SDS011;9393;42.158;24.748;2022-09-23T03:54:08;5.53;;;4.60;;
18526;SDS011;9393;42.158;24.748;2022-09-23T03:57:11;6.27;;;4.67;;
18526;SDS011;9393;42.158;24.748;2022-09-23T04:00:15;8.30;;;5.67;;
18526;SDS011;9393;42.158;24.748;2022-09-23T04:03:18;9.87;;;5.50;;
18526;SDS011;9393;42.158;24.748;2022-09-23T04:06:23;10.87;;;5.03;;
18526;SDS011;9393;42.158;24.748;2022-09-23T04:09:28;9.80;;;6.27;;
18526;SDS011;9393;42.158;24.748;2022-09-23T04:12:31;15.00;;;5.87;;
18526;SDS011;9393;42.158;24.748;2022-09-23T04:15:34;16.03;;;6.40;;
18526;SDS011;9393;42.158;24.748;2022-09-23T04:18:38;10.60;;;6.17;;
18526;SDS011;9393;42.158;24.748;2022-09-23T04:21:41;11.33;;;5.97;;
18526;SDS011;9393;42.158;24.748;2022-09-23T04:24:47;12.00;;;5.40;;
18526;SDS011;9393;42.158;24.748;2022-09-23T04:27:50;15.30;;;6.27;;
18526;SDS011;9393;42.158;24.748;2022-09-23T04:30:54;7.90;;;5.43;;
18526;SDS011;9393;42.158;24.748;2022-09-23T04:33:58;9.83;;;6.53;;
18526;SDS011;9393;42.158;24.748;2022-09-23T04:37:02;8.57;;;5.37;;
18526;SDS011;9393;42.158;24.748;2022-09-23T04:40:07;10.27;;;6.60;;
18526;SDS011;9393;42.158;24.748;2022-09-23T04:43:11;9.33;;;5.53;;
18526;SDS011;9393;42.158;24.748;2022-09-23T04:46:16;7.63;;;5.67;;
18526;SDS011;9393;42.158;24.748;2022-09-23T04:49:19;8.90;;;5.57;;
18526;SDS011;9393;42.158;24.748;2022-09-23T04:52:23;11.03;;;5.10;;
18526;SDS011;9393;42.158;24.748;2022-09-23T04:55:27;7.63;;;5.23;;
18526;SDS011;9393;42.158;24.748;2022-09-23T04:58:31;14.50;;;6.40;;
18526;SDS011;9393;42.158;24.748;2022-09-23T05:01:35;7.77;;;4.90;;
18526;SDS011;9393;42.158;24.748;2022-09-23T05:04:39;6.40;;;5.30;;
18526;SDS011;9393;42.158;24.748;2022-09-23T05:07:42;8.53;;;5.23;;
18526;SDS011;9393;42.158;24.748;2022-09-23T05:10:47;7.20;;;4.83;;
18526;SDS011;9393;42.158;24.748;2022-09-23T05:13:50;8.73;;;4.70;;
18526;SDS011;9393;42.158;24.748;2022-09-23T05:16:55;8.47;;;5.57;;
18526;SDS011;9393;42.158;24.748;2022-09-23T05:19:58;9.50;;;4.73;;
18526;SDS011;9393;42.158;24.748;2022-09-23T05:23:01;7.67;;;4.60;;
18526;SDS011;9393;42.158;24.748;2022-09-23T05:26:07;4.40;;;3.90;;
18526;SDS011;9393;42.158;24.748;2022-09-23T05:29:12;6.17;;;4.30;;
18526;SDS011;9393;42.158;24.748;2022-09-23T05:32:15;6.43;;;4.23;;
18526;SDS011;9393;42.158;24.748;2022-09-23T05:35:18;5.83;;;4.20;;
18526;SDS011;9393;42.158;24.748;2022-09-23T05:38:22;4.17;;;3.60;;
18526;SDS011;9393;42.158;24.748;2022-09-23T05:41:26;6.10;;;4.47;;
18526;SDS011;9393;42.158;24.748;2022-09-23T05:44:30;4.83;;;4.20;;
18526;SDS011;9393;42.158;24.748;2022-09-23T05:47:33;5.30;;;4.00;;
18526;SDS011;9393;42.158;24.748;2022-09-23T05:50:36;7.47;;;3.80;;
18526;SDS011;9393;42.158;24.748;2022-09-23T05:53:40;4.40;;;3.50;;
18526;SDS011;9393;42.158;24.748;2022-09-23T05:56:47;6.97;;;3.80;;
18526;SDS011;9393;42.158;24.748;2022-09-23T05:59:50;5.03;;;3.70;;
18526;SDS011;9393;42.158;24.748;2022-09-23T06:02:53;4.83;;;4.17;;
18526;SDS011;9393;42.158;24.748;2022-09-23T06:05:57;4.10;;;3.70;;
18526;SDS011;9393;42.158;24.748;2022-09-23T06:09:00;7.37;;;3.93;;
18526;SDS011;9393;42.158;24.748;2022-09-23T06:12:05;5.90;;;4.43;;
18526;SDS011;9393;42.158;24.748;2022-09-23T06:15:09;4.67;;;4.00;;
18526;SDS011;9393;42.158;24.748;2022-09-23T06:18:13;6.83;;;4.67;;
18526;SDS011;9393;42.158;24.748;2022-09-23T06:21:17;10.73;;;5.07;;
18526;SDS011;9393;42.158;24.748;2022-09-23T06:24:21;7.67;;;4.53;;
18526;SDS011;9393;42.158;24.748;2022-09-23T06:27:32;7.90;;;4.47;;
18526;SDS011;9393;42.158;24.748;2022-09-23T06:30:35;5.90;;;4.10;;
18526;SDS011;9393;42.158;24.748;2022-09-23T06:33:40;15.20;;;5.00;;
18526;SDS011;9393;42.158;24.748;2022-09-23T06:36:44;7.20;;;4.60;;
18526;SDS011;9393;42.158;24.748;2022-09-23T06:39:47;5.37;;;4.43;;
18526;SDS011;9393;42.158;24.748;2022-09-23T06:42:57;6.43;;;4.10;;
18526;SDS011;9393;42.158;24.748;2022-09-23T06:46:02;5.63;;;3.90;;
18526;SDS011;9393;42.158;24.748;2022-09-23T06:49:06;5.20;;;4.07;;
18526;SDS011;9393;42.158;24.748;2022-09-23T06:52:10;8.60;;;3.90;;
18526;SDS011;9393;42.158;24.748;2022-09-23T06:55:13;9.97;;;4.00;;
18526;SDS011;9393;42.158;24.748;2022-09-23T06:58:18;7.40;;;3.70;;
18526;SDS011;9393;42.158;24.748;2022-09-23T07:01:21;6.57;;;3.30;;
18526;SDS011;9393;42.158;24.748;2022-09-23T07:04:24;8.50;;;4.40;;
18526;SDS011;9393;42.158;24.748;2022-09-23T07:07:30;4.20;;;3.57;;
18526;SDS011;9393;42.158;24.748;2022-09-23T07:10:33;4.93;;;3.43;;
18526;SDS011;9393;42.158;24.748;2022-09-23T07:13:37;3.80;;;3.40;;
18526;SDS011;9393;42.158;24.748;2022-09-23T07:16:42;4.13;;;3.40;;
18526;SDS011;9393;42.158;24.748;2022-09-23T07:19:45;10.00;;;3.63;;
18526;SDS011;9393;42.158;24.748;2022-09-23T07:22:49;3.63;;;3.23;;
18526;SDS011;9393;42.158;24.748;2022-09-23T07:25:52;4.73;;;3.13;;
18526;SDS011;9393;42.158;24.748;2022-09-23T07:29:01;5.40;;;3.53;;
18526;SDS011;9393;42.158;24.748;2022-09-23T07:32:06;4.33;;;3.80;;
18526;SDS011;9393;42.158;24.748;2022-09-23T07:35:14;4.27;;;3.10;;
18526;SDS011;9393;42.158;24.748;2022-09-23T07:38:18;3.43;;;3.13;;
18526;SDS011;9393;42.158;24.748;2022-09-23T07:41:21;5.00;;;2.93;;
18526;SDS011;9393;42.158;24.748;2022-09-23T07:44:27;5.17;;;2.90;;
18526;SDS011;9393;42.158;24.748;2022-09-23T07:47:32;3.30;;;3.00;;
18526;SDS011;9393;42.158;24.748;2022-09-23T07:50:37;5.93;;;3.00;;
18526;SDS011;9393;42.158;24.748;2022-09-23T07:53:41;3.50;;;3.20;;
18526;SDS011;9393;42.158;24.748;2022-09-23T07:56:44;6.60;;;3.00;;
18526;SDS011;9393;42.158;24.748;2022-09-23T07:59:50;5.37;;;3.07;;
18526;SDS011;9393;42.158;24.748;2022-09-23T08:02:53;4.80;;;3.03;;
18526;SDS011;9393;42.158;24.748;2022-09-23T08:06:02;8.03;;;3.60;;
18526;SDS011;9393;42.158;24.748;2022-09-23T08:09:06;3.40;;;3.10;;
18526;SDS011;9393;42.158;24.748;2022-09-23T08:12:10;5.10;;;2.73;;
18526;SDS011;9393;42.158;24.748;2022-09-23T08:15:18;3.07;;;2.33;;
18526;SDS011;9393;42.158;24.748;2022-09-23T08:18:21;5.40;;;2.83;;
18526;SDS011;9393;42.158;24.748;2022-09-23T08:21:24;3.53;;;2.63;;
18526;SDS011;9393;42.158;24.748;2022-09-23T08:24:28;5.33;;;2.97;;
18526;SDS011;9393;42.158;24.748;2022-09-23T08:27:32;3.77;;;2.83;;
18526;SDS011;9393;42.158;24.748;2022-09-23T08:30:37;4.00;;;2.90;;
18526;SDS011;9393;42.158;24.748;2022-09-23T08:33:40;3.73;;;2.57;;
18526;SDS011;9393;42.158;24.748;2022-09-23T08:36:44;3.63;;;2.47;;
18526;SDS011;9393;42.158;24.748;2022-09-23T08:39:48;3.83;;;2.70;;
18526;SDS011;9393;42.158;24.748;2022-09-23T08:42:51;2.90;;;2.30;;
18526;SDS011;9393;42.158;24.748;2022-09-23T08:45:56;3.33;;;2.20;;
18526;SDS011;9393;42.158;24.748;2022-09-23T08:49:03;2.57;;;2.30;;
18526;SDS011;9393;42.158;24.748;2022-09-23T08:52:08;4.47;;;2.60;;
18526;SDS011;9393;42.158;24.748;2022-09-23T08:55:19;2.43;;;2.10;;
18526;SDS011;9393;42.158;24.748;2022-09-23T08:58:32;3.47;;;2.90;;
18526;SDS011;9393;42.158;24.748;2022-09-23T09:01:47;3.23;;;2.50;;
18526;SDS011;9393;42.158;24.748;2022-09-23T09:04:54;2.43;;;2.23;;
18526;SDS011;9393;42.158;24.748;2022-09-23T09:08:04;2.50;;;2.30;;
18526;SDS011;9393;42.158;24.748;2022-09-23T09:11:08;2.40;;;2.20;;
18526;SDS011;9393;42.158;24.748;2022-09-23T09:14:16;2.90;;;2.40;;
18526;SDS011;9393;42.158;24.748;2022-09-23T09:17:27;2.67;;;2.47;;
18526;SDS011;9393;42.158;24.748;2022-09-23T09:20:37;4.03;;;2.20;;
18526;SDS011;9393;42.158;24.748;2022-09-23T09:23:44;2.73;;;2.40;;
18526;SDS011;9393;42.158;24.748;2022-09-23T09:26:50;3.03;;;1.93;;
18526;SDS011;9393;42.158;24.748;2022-09-23T09:29:53;2.13;;;1.40;;
18526;SDS011;9393;42.158;24.748;2022-09-23T09:32:58;2.97;;;1.67;;
18526;SDS011;9393;42.158;24.748;2022-09-23T09:36:10;2.27;;;1.67;;
18526;SDS011;9393;42.158;24.748;2022-09-23T09:39:21;2.00;;;1.90;;
18526;SDS011;9393;42.158;24.748;2022-09-23T09:42:29;1.93;;;1.73;;
18526;SDS011;9393;42.158;24.748;2022-09-23T09:45:45;1.90;;;1.70;;
18526;SDS011;9393;42.158;24.748;2022-09-23T09:49:01;3.47;;;1.87;;
18526;SDS011;9393;42.158;24.748;2022-09-23T09:52:18;2.30;;;1.80;;
18526;SDS011;9393;42.158;24.748;2022-09-23T09:55:25;2.17;;;1.97;;
18526;SDS011;9393;42.158;24.748;2022-09-23T09:58:32;1.75;;;1.65;;
18526;SDS011;9393;42.158;24.748;2022-09-23T10:01:44;2.50;;;2.30;;
18526;SDS011;9393;42.158;24.748;2022-09-23T10:04:54;3.85;;;2.08;;
18526;SDS011;9393;42.158;24.748;2022-09-23T10:08:14;6.00;;;1.92;;
18526;SDS011;9393;42.158;24.748;2022-09-23T10:11:24;3.03;;;1.58;;
18526;SDS011;9393;42.158;24.748;2022-09-23T10:14:27;1.70;;;1.45;;
18526;SDS011;9393;42.158;24.748;2022-09-23T10:17:31;1.45;;;1.33;;
18526;SDS011;9393;42.158;24.748;2022-09-23T10:20:37;1.42;;;1.33;;
18526;SDS011;9393;42.158;24.748;2022-09-23T10:23:41;2.42;;;1.30;;
18526;SDS011;9393;42.158;24.748;2022-09-23T10:26:50;1.60;;;1.50;;
18526;SDS011;9393;42.158;24.748;2022-09-23T10:29:57;1.92;;;1.48;;
18526;SDS011;9393;42.158;24.748;2022-09-23T10:33:02;2.97;;;1.38;;
18526;SDS011;9393;42.158;24.748;2022-09-23T10:36:11;1.00;;;1.00;;
18526;SDS011;9393;42.158;24.748;2022-09-23T10:39:17;1.35;;;1.25;;
18526;SDS011;9393;42.158;24.748;2022-09-23T10:42:42;3.42;;;1.30;;
18526;SDS011;9393;42.158;24.748;2022-09-23T10:46:15;3.55;;;1.40;;
18526;SDS011;9393;42.158;24.748;2022-09-23T10:53:05;1.42;;;1.25;;
18526;SDS011;9393;42.158;24.748;2022-09-23T10:56:23;1.58;;;1.20;;
18526;SDS011;9393;42.158;24.748;2022-09-23T10:59:36;2.20;;;1.00;;
18526;SDS011;9393;42.158;24.748;2022-09-23T11:02:57;1.25;;;1.10;;
18526;SDS011;9393;42.158;24.748;2022-09-23T11:06:17;1.20;;;1.10;;
18526;SDS011;9393;42.158;24.748;2022-09-23T11:09:31;1.30;;;1.20;;
18526;SDS011;9393;42.158;24.748;2022-09-23T11:12:46;1.30;;;1.20;;
18526;SDS011;9393;42.158;24.748;2022-09-23T11:16:03;1.63;;;1.33;;
18526;SDS011;9393;42.158;24.748;2022-09-23T11:19:21;1.33;;;0.98;;
18526;SDS011;9393;42.158;24.748;2022-09-23T11:22:53;1.23;;;1.13;;
18526;SDS011;9393;42.158;24.748;2022-09-23T11:26:15;1.38;;;1.10;;
18526;SDS011;9393;42.158;24.748;2022-09-23T11:29:37;1.75;;;1.20;;
18526;SDS011;9393;42.158;24.748;2022-09-23T11:33:07;1.00;;;0.80;;
18526;SDS011;9393;42.158;24.748;2022-09-23T11:36:25;1.33;;;1.20;;
18526;SDS011;9393;42.158;24.748;2022-09-23T11:39:35;1.45;;;1.17;;
18526;SDS011;9393;42.158;24.748;2022-09-23T11:42:48;1.25;;;1.00;;
18526;SDS011;9393;42.158;24.748;2022-09-23T11:45:57;1.48;;;1.00;;
18526;SDS011;9393;42.158;24.748;2022-09-23T11:49:06;0.90;;;0.90;;
18526;SDS011;9393;42.158;24.748;2022-09-23T11:52:17;3.17;;;1.00;;
18526;SDS011;9393;42.158;24.748;2022-09-23T11:55:24;2.03;;;1.00;;
18526;SDS011;9393;42.158;24.748;2022-09-23T11:58:36;1.13;;;1.00;;
18526;SDS011;9393;42.158;24.748;2022-09-23T12:01:45;1.90;;;1.10;;
18526;SDS011;9393;42.158;24.748;2022-09-23T12:04:54;1.48;;;1.08;;
18526;SDS011;9393;42.158;24.748;2022-09-23T12:08:05;1.83;;;1.10;;
18526;SDS011;9393;42.158;24.748;2022-09-23T12:11:17;1.98;;;1.10;;
18526;SDS011;9393;42.158;24.748;2022-09-23T12:14:28;1.20;;;1.10;;
18526;SDS011;9393;42.158;24.748;2022-09-23T12:17:44;1.27;;;1.10;;
18526;SDS011;9393;42.158;24.748;2022-09-23T12:21:04;2.08;;;1.42;;
18526;SDS011;9393;42.158;24.748;2022-09-23T12:24:49;1.40;;;1.30;;
18526;SDS011;9393;42.158;24.748;2022-09-23T12:27:59;1.10;;;1.00;;
18526;SDS011;9393;42.158;24.748;2022-09-23T12:31:09;1.35;;;1.00;;
18526;SDS011;9393;42.158;24.748;2022-09-23T12:34:18;1.42;;;0.98;;
18526;SDS011;9393;42.158;24.748;2022-09-23T12:37:26;0.82;;;0.82;;
18526;SDS011;9393;42.158;24.748;2022-09-23T12:40:32;1.92;;;0.90;;
18526;SDS011;9393;42.158;24.748;2022-09-23T12:43:41;1.55;;;1.20;;
18526;SDS011;9393;42.158;24.748;2022-09-23T12:50:50;1.70;;;1.40;;
18526;SDS011;9393;42.158;24.748;2022-09-23T12:53:55;1.30;;;1.17;;
18526;SDS011;9393;42.158;24.748;2022-09-23T12:57:38;2.08;;;1.10;;
18526;SDS011;9393;42.158;24.748;2022-09-23T13:00:42;1.83;;;1.15;;
18526;SDS011;9393;42.158;24.748;2022-09-23T13:07:50;1.15;;;1.05;;
18526;SDS011;9393;42.158;24.748;2022-09-23T13:11:00;1.67;;;1.00;;
18526;SDS011;9393;42.158;24.748;2022-09-23T13:14:05;1.17;;;1.08;;
18526;SDS011;9393;42.158;24.748;2022-09-23T13:17:19;4.32;;;1.08;;
18526;SDS011;9393;42.158;24.748;2022-09-23T13:20:37;2.25;;;0.80;;
18526;SDS011;9393;42.158;24.748;2022-09-23T13:23:41;2.03;;;1.25;;
18526;SDS011;9393;42.158;24.748;2022-09-23T13:27:20;1.70;;;1.00;;
18526;SDS011;9393;42.158;24.748;2022-09-23T13:30:28;1.00;;;0.90;;
18526;SDS011;9393;42.158;24.748;2022-09-23T13:33:39;1.23;;;1.00;;
18526;SDS011;9393;42.158;24.748;2022-09-23T13:36:47;2.83;;;0.90;;
18526;SDS011;9393;42.158;24.748;2022-09-23T13:39:50;0.90;;;0.90;;
18526;SDS011;9393;42.158;24.748;2022-09-23T13:42:55;1.42;;;0.90;;
18526;SDS011;9393;42.158;24.748;2022-09-23T13:46:01;1.42;;;1.00;;
18526;SDS011;9393;42.158;24.748;2022-09-23T13:49:11;1.10;;;1.00;;
18526;SDS011;9393;42.158;24.748;2022-09-23T13:52:26;1.40;;;1.20;;
18526;SDS011;9393;42.158;24.748;2022-09-23T13:55:33;1.42;;;1.20;;
18526;SDS011;9393;42.158;24.748;2022-09-23T13:58:39;6.45;;;1.00;;
18526;SDS011;9393;42.158;24.748;2022-09-23T14:01:43;6.32;;;1.40;;
18526;SDS011;9393;42.158;24.748;2022-09-23T14:04:47;1.67;;;1.10;;
18526;SDS011;9393;42.158;24.748;2022-09-23T14:07:53;1.20;;;1.10;;
18526;SDS011;9393;42.158;24.748;2022-09-23T14:10:56;5.82;;;1.83;;
18526;SDS011;9393;42.158;24.748;2022-09-23T14:14:01;2.47;;;2.20;;
18526;SDS011;9393;42.158;24.748;2022-09-23T14:17:07;3.50;;;1.75;;
18526;SDS011;9393;42.158;24.748;2022-09-23T14:20:19;3.83;;;2.03;;
18526;SDS011;9393;42.158;24.748;2022-09-23T14:23:25;1.75;;;1.60;;
18526;SDS011;9393;42.158;24.748;2022-09-23T14:26:28;4.20;;;2.00;;
18526;SDS011;9393;42.158;24.748;2022-09-23T14:29:33;3.72;;;2.03;;
18526;SDS011;9393;42.158;24.748;2022-09-23T14:32:37;3.42;;;1.80;;
18526;SDS011;9393;42.158;24.748;2022-09-23T14:35:42;2.47;;;1.50;;
18526;SDS011;9393;42.158;24.748;2022-09-23T14:38:49;3.20;;;1.95;;
18526;SDS011;9393;42.158;24.748;2022-09-23T14:41:52;3.15;;;1.70;;
18526;SDS011;9393;42.158;24.748;2022-09-23T14:44:55;4.03;;;1.73;;
18526;SDS011;9393;42.158;24.748;2022-09-23T14:47:59;3.57;;;1.80;;
18526;SDS011;9393;42.158;24.748;2022-09-23T14:51:05;1.75;;;1.50;;
18526;SDS011;9393;42.158;24.748;2022-09-23T14:54:22;1.90;;;1.30;;
18526;SDS011;9393;42.158;24.748;2022-09-23T14:57:37;4.40;;;1.40;;
18526;SDS011;9393;42.158;24.748;2022-09-23T15:00:49;3.35;;;1.85;;
18526;SDS011;9393;42.158;24.748;2022-09-23T15:03:54;3.72;;;2.38;;
18526;SDS011;9393;42.158;24.748;2022-09-23T15:07:03;3.10;;;2.03;;
18526;SDS011;9393;42.158;24.748;2022-09-23T15:10:15;2.70;;;1.90;;
18526;SDS011;9393;42.158;24.748;2022-09-23T15:13:26;1.47;;;1.37;;
18526;SDS011;9393;42.158;24.748;2022-09-23T15:16:31;1.87;;;1.43;;
18526;SDS011;9393;42.158;24.748;2022-09-23T15:19:34;2.13;;;1.70;;
18526;SDS011;9393;42.158;24.748;2022-09-23T15:22:42;4.40;;;1.77;;
18526;SDS011;9393;42.158;24.748;2022-09-23T15:25:49;1.97;;;1.70;;
18526;SDS011;9393;42.158;24.748;2022-09-23T15:28:53;1.67;;;1.57;;
18526;SDS011;9393;42.158;24.748;2022-09-23T15:31:58;2.07;;;1.80;;
18526;SDS011;9393;42.158;24.748;2022-09-23T15:35:02;4.73;;;2.07;;
18526;SDS011;9393;42.158;24.748;2022-09-23T15:38:07;2.57;;;1.60;;
18526;SDS011;9393;42.158;24.748;2022-09-23T15:41:12;2.17;;;1.70;;
18526;SDS011;9393;42.158;24.748;2022-09-23T15:44:17;2.50;;;1.50;;
18526;SDS011;9393;42.158;24.748;2022-09-23T15:47:29;1.80;;;1.30;;
18526;SDS011;9393;42.158;24.748;2022-09-23T15:50:33;5.37;;;1.60;;
18526;SDS011;9393;42.158;24.748;2022-09-23T15:53:38;3.20;;;1.60;;
18526;SDS011;9393;42.158;24.748;2022-09-23T15:56:42;6.23;;;1.47;;
18526;SDS011;9393;42.158;24.748;2022-09-23T15:59:47;1.47;;;1.37;;
18526;SDS011;9393;42.158;24.748;2022-09-23T16:02:50;2.87;;;1.40;;
18526;SDS011;9393;42.158;24.748;2022-09-23T16:05:54;1.70;;;1.60;;
18526;SDS011;9393;42.158;24.748;2022-09-23T16:09:01;1.53;;;1.43;;
18526;SDS011;9393;42.158;24.748;2022-09-23T16:12:06;3.73;;;2.13;;
18526;SDS011;9393;42.158;24.748;2022-09-23T16:15:14;2.10;;;1.70;;
18526;SDS011;9393;42.158;24.748;2022-09-23T16:18:19;3.77;;;1.97;;
18526;SDS011;9393;42.158;24.748;2022-09-23T16:21:23;3.30;;;2.60;;
18526;SDS011;9393;42.158;24.748;2022-09-23T16:24:28;6.23;;;4.83;;
18526;SDS011;9393;42.158;24.748;2022-09-23T16:27:32;6.10;;;4.97;;
18526;SDS011;9393;42.158;24.748;2022-09-23T16:30:36;4.17;;;3.20;;
18526;SDS011;9393;42.158;24.748;2022-09-23T16:33:39;9.50;;;6.13;;
18526;SDS011;9393;42.158;24.748;2022-09-23T16:36:42;10.07;;;7.07;;
18526;SDS011;9393;42.158;24.748;2022-09-23T16:39:47;5.30;;;4.43;;
18526;SDS011;9393;42.158;24.748;2022-09-23T16:42:51;5.83;;;4.30;;
18526;SDS011;9393;42.158;24.748;2022-09-23T16:45:56;4.10;;;3.30;;
18526;SDS011;9393;42.158;24.748;2022-09-23T16:49:00;6.70;;;3.13;;
18526;SDS011;9393;42.158;24.748;2022-09-23T16:52:03;6.57;;;2.90;;
18526;SDS011;9393;42.158;24.748;2022-09-23T16:55:07;5.70;;;3.37;;
18526;SDS011;9393;42.158;24.748;2022-09-23T16:58:13;6.77;;;3.27;;
18526;SDS011;9393;42.158;24.748;2022-09-23T17:01:17;6.13;;;3.60;;
18526;SDS011;9393;42.158;24.748;2022-09-23T17:04:40;8.30;;;3.90;;
18526;SDS011;9393;42.158;24.748;2022-09-23T17:07:43;6.77;;;3.90;;
18526;SDS011;9393;42.158;24.748;2022-09-23T17:10:53;7.93;;;3.70;;
18526;SDS011;9393;42.158;24.748;2022-09-23T17:13:59;9.27;;;4.20;;
18526;SDS011;9393;42.158;24.748;2022-09-23T17:17:02;10.07;;;4.23;;
18526;SDS011;9393;42.158;24.748;2022-09-23T17:20:07;11.77;;;4.53;;
18526;SDS011;9393;42.158;24.748;2022-09-23T17:23:10;10.60;;;4.53;;
18526;SDS011;9393;42.158;24.748;2022-09-23T17:26:14;12.40;;;4.73;;
18526;SDS011;9393;42.158;24.748;2022-09-23T17:29:19;9.83;;;4.70;;
18526;SDS011;9393;42.158;24.748;2022-09-23T17:32:22;8.80;;;4.80;;
18526;SDS011;9393;42.158;24.748;2022-09-23T17:35:25;10.63;;;4.60;;
18526;SDS011;9393;42.158;24.748;2022-09-23T17:38:29;14.43;;;4.93;;
18526;SDS011;9393;42.158;24.748;2022-09-23T17:41:35;9.67;;;4.63;;
18526;SDS011;9393;42.158;24.748;2022-09-23T17:44:41;10.77;;;5.07;;
18526;SDS011;9393;42.158;24.748;2022-09-23T17:47:44;9.07;;;5.53;;
18526;SDS011;9393;42.158;24.748;2022-09-23T17:50:55;9.67;;;6.23;;
18526;SDS011;9393;42.158;24.748;2022-09-23T17:54:01;12.77;;;6.93;;
18526;SDS011;9393;42.158;24.748;2022-09-23T17:57:05;15.97;;;7.50;;
18526;SDS011;9393;42.158;24.748;2022-09-23T18:00:11;13.10;;;7.83;;
18526;SDS011;9393;42.158;24.748;2022-09-23T18:03:14;15.50;;;7.20;;
18526;SDS011;9393;42.158;24.748;2022-09-23T18:06:19;14.27;;;7.30;;
18526;SDS011;9393;42.158;24.748;2022-09-23T18:09:23;19.33;;;8.53;;
18526;SDS011;9393;42.158;24.748;2022-09-23T18:12:27;13.47;;;7.17;;
18526;SDS011;9393;42.158;24.748;2022-09-23T18:15:32;11.90;;;5.80;;
18526;SDS011;9393;42.158;24.748;2022-09-23T18:18:37;16.23;;;6.60;;
18526;SDS011;9393;42.158;24.748;2022-09-23T18:21:41;18.83;;;7.67;;
18526;SDS011;9393;42.158;24.748;2022-09-23T18:24:45;14.63;;;7.80;;
18526;SDS011;9393;42.158;24.748;2022-09-23T18:27:49;16.93;;;8.50;;
18526;SDS011;9393;42.158;24.748;2022-09-23T18:30:54;14.17;;;5.77;;
18526;SDS011;9393;42.158;24.748;2022-09-23T18:33:58;8.03;;;4.20;;
18526;SDS011;9393;42.158;24.748;2022-09-23T18:37:03;6.63;;;3.30;;
18526;SDS011;9393;42.158;24.748;2022-09-23T18:40:16;5.07;;;2.93;;
18526;SDS011;9393;42.158;24.748;2022-09-23T18:43:20;5.67;;;3.17;;
18526;SDS011;9393;42.158;24.748;2022-09-23T18:46:27;6.37;;;2.87;;
18526;SDS011;9393;42.158;24.748;2022-09-23T18:49:32;6.07;;;2.67;;
18526;SDS011;9393;42.158;24.748;2022-09-23T18:52:55;10.53;;;3.43;;
18526;SDS011;9393;42.158;24.748;2022-09-23T18:56:02;4.80;;;3.20;;
18526;SDS011;9393;42.158;24.748;2022-09-23T18:59:07;4.73;;;3.07;;